Time;durP1;ratioP1;P1;durP2;ratioP2;P2;SDS_P1;SDS_P2;PMS_P1;PMS_P2;Temp;Humidity;BMP_temperature;BMP_pressure;BME280_temperature;BME280_humidity;BME280_pressure;Samples;Min_cycle;Max_cycle;Signal;HPM_P1;HPM_P2
2022/02/23 00:01:09;;;;;;;1.50;1.40;;;7.40;64.20;;;;;;6157415;23;20036;-74
2022/02/23 00:03:34;;;;;;;1.25;1.15;;;7.40;64.30;;;;;;6183217;23;20008;-74
2022/02/23 00:06:00;;;;;;;4.95;1.75;;;7.40;64.50;;;;;;6183240;23;20001;-73
2022/02/23 00:08:26;;;;;;;2.28;1.60;;;7.40;64.80;;;;;;6156851;23;20092;-74
2022/02/23 00:10:52;;;;;;;1.80;1.65;;;7.30;64.60;;;;;;6157161;23;20453;-74
2022/02/23 00:13:17;;;;;;;1.80;1.65;;;7.40;64.50;;;;;;6185237;23;20425;-74
2022/02/23 00:15:43;;;;;;;1.65;1.55;;;7.40;64.50;;;;;;6158917;23;20397;-74
2022/02/23 00:18:14;;;;;;;4.93;1.50;;;7.40;64.30;;;;;;6185176;23;20008;-73
2022/02/23 00:20:40;;;;;;;1.85;1.30;;;7.40;64.40;;;;;;6158727;23;20320;-73
2022/02/23 00:23:06;;;;;;;2.05;1.70;;;7.40;64.70;;;;;;6185264;23;20079;-73
2022/02/23 00:25:32;;;;;;;2.33;1.30;;;7.40;64.70;;;;;;6163293;23;20021;-74
2022/02/23 00:27:57;;;;;;;3.90;2.17;;;7.30;64.70;;;;;;6155328;23;20049;-73
2022/02/23 00:30:23;;;;;;;1.38;1.20;;;7.40;64.90;;;;;;6155719;23;20337;-74
2022/02/23 00:32:50;;;;;;;2.17;1.23;;;7.40;64.20;;;;;;6129092;23;20422;-74
2022/02/23 00:35:16;;;;;;;3.20;1.73;;;7.40;63.70;;;;;;6155342;23;20042;-74
2022/02/23 00:37:41;;;;;;;1.13;1.02;;;7.50;62.50;;;;;;6155429;23;20009;-74
2022/02/23 00:40:08;;;;;;;1.55;1.33;;;7.50;62.30;;;;;;6155250;23;20065;-74
2022/02/23 00:42:34;;;;;;;1.70;1.27;;;7.60;62.40;;;;;;6155154;23;20006;-74
2022/02/23 00:44:59;;;;;;;1.50;1.33;;;7.60;62.50;;;;;;6155478;23;20334;-74
2022/02/23 00:47:25;;;;;;;2.90;1.38;;;7.60;62.70;;;;;;6155276;23;20002;-74
2022/02/23 00:49:51;;;;;;;1.42;1.33;;;7.60;62.80;;;;;;6130382;23;20450;-79
2022/02/23 00:52:17;;;;;;;1.33;1.23;;;7.60;63.40;;;;;;6132128;23;20029;-80
2022/02/23 00:54:43;;;;;;;1.25;1.15;;;7.50;63.60;;;;;;6157144;23;19993;-79
2022/02/23 00:57:09;;;;;;;1.67;1.40;;;7.50;63.60;;;;;;6157529;23;20009;-79
2022/02/23 00:59:36;;;;;;;1.60;1.50;;;7.50;63.90;;;;;;6157665;23;20060;-79
2022/02/23 01:02:01;;;;;;;1.63;1.52;;;7.50;63.90;;;;;;6157453;23;20437;-79
2022/02/23 01:04:27;;;;;;;3.15;1.63;;;7.50;63.50;;;;;;6157635;23;20006;-80
2022/02/23 01:06:53;;;;;;;1.50;1.40;;;7.60;62.30;;;;;;6131319;23;20009;-79
2022/02/23 01:09:19;;;;;;;3.25;1.77;;;7.60;61.90;;;;;;6157479;23;20002;-79
2022/02/23 01:11:44;;;;;;;1.85;1.75;;;7.70;62.00;;;;;;6131302;23;20446;-80
2022/02/23 01:14:11;;;;;;;3.55;2.10;;;7.70;62.10;;;;;;6157405;23;20005;-80
2022/02/23 01:16:37;;;;;;;2.00;1.80;;;7.70;62.70;;;;;;6131351;23;20036;-79
2022/02/23 01:19:05;;;;;;;2.58;1.77;;;7.70;63.00;;;;;;6131425;23;20342;-79
2022/02/23 01:21:31;;;;;;;1.90;1.77;;;7.70;63.00;;;;;;6156940;23;20048;-79
2022/02/23 01:23:56;;;;;;;6.35;2.08;;;7.70;62.70;;;;;;6156652;23;20001;-79
2022/02/23 01:26:22;;;;;;;5.15;2.03;;;7.80;62.80;;;;;;6156976;23;20012;-79
2022/02/23 01:28:48;;;;;;;2.63;2.13;;;7.70;63.50;;;;;;6156835;23;20033;-79
2022/02/23 01:31:14;;;;;;;2.90;1.95;;;7.80;62.70;;;;;;6156714;23;20080;-79
2022/02/23 01:33:40;;;;;;;2.67;2.47;;;7.80;63.20;;;;;;6156959;23;20029;-79
2022/02/23 01:36:06;;;;;;;2.40;2.20;;;7.80;63.40;;;;;;6156725;23;20002;-79
2022/02/23 01:38:32;;;;;;;3.72;2.67;;;7.80;63.20;;;;;;6156685;23;20076;-79
2022/02/23 01:40:59;;;;;;;5.45;2.50;;;7.80;63.30;;;;;;6156707;23;20442;-80
2022/02/23 01:43:25;;;;;;;3.38;2.78;;;7.90;63.30;;;;;;6155265;23;20084;-79
2022/02/23 01:45:51;;;;;;;6.60;3.30;;;7.90;63.60;;;;;;6156778;23;20079;-79
2022/02/23 01:48:16;;;;;;;3.10;2.55;;;7.90;63.20;;;;;;6156593;23;20076;-80
2022/02/23 01:50:43;;;;;;;5.15;3.35;;;7.80;64.30;;;;;;6156528;23;20454;-79
2022/02/23 01:53:08;;;;;;;3.42;2.47;;;7.80;64.90;;;;;;6156112;23;20501;-79
2022/02/23 01:55:35;;;;;;;3.65;2.60;;;7.80;64.90;;;;;;6155900;23;19997;-79
2022/02/23 01:58:02;;;;;;;3.03;2.50;;;7.70;64.90;;;;;;6156196;23;20002;-79
2022/02/23 02:00:28;;;;;;;5.60;2.75;;;7.70;64.60;;;;;;6156038;23;20001;-79
2022/02/23 02:02:54;;;;;;;5.43;3.08;;;7.70;65.10;;;;;;6130035;23;20354;-79
2022/02/23 02:05:20;;;;;;;2.60;2.40;;;7.60;65.80;;;;;;6155890;23;20006;-79
2022/02/23 02:07:46;;;;;;;3.10;2.72;;;7.60;66.00;;;;;;6155884;23;20006;-80
2022/02/23 02:10:12;;;;;;;5.97;3.45;;;7.50;65.90;;;;;;6155975;23;20001;-80
2022/02/23 02:12:39;;;;;;;3.10;2.75;;;7.50;65.50;;;;;;6155614;23;20092;-79
2022/02/23 02:15:06;;;;;;;3.45;3.00;;;7.50;65.60;;;;;;6128812;23;20006;-79
2022/02/23 02:17:31;;;;;;;3.30;2.35;;;7.40;65.80;;;;;;6155172;23;20005;-79
2022/02/23 02:19:57;;;;;;;2.90;2.70;;;7.40;65.90;;;;;;6128984;23;20016;-79
2022/02/23 02:22:28;;;;;;;3.10;2.83;;;7.30;65.70;;;;;;6129508;23;20145;-79
2022/02/23 02:24:55;;;;;;;2.60;2.40;;;7.30;66.70;;;;;;6167351;23;20119;-79
2022/02/23 02:27:22;;;;;;;5.55;2.45;;;7.30;66.20;;;;;;6159119;23;20009;-79
2022/02/23 02:29:48;;;;;;;3.00;2.45;;;7.30;66.10;;;;;;6185649;23;20456;-79
2022/02/23 02:32:17;;;;;;;3.58;2.33;;;7.20;65.70;;;;;;6184840;23;19997;-79
2022/02/23 02:34:44;;;;;;;2.55;2.35;;;7.20;65.00;;;;;;6184816;23;20070;-80
2022/02/23 02:37:10;;;;;;;2.80;2.35;;;7.20;64.20;;;;;;6185160;23;20055;-79
2022/02/23 02:39:36;;;;;;;2.70;2.08;;;7.20;64.40;;;;;;6182886;23;20027;-79
2022/02/23 02:42:02;;;;;;;2.70;2.38;;;7.20;63.90;;;;;;6156437;23;20012;-79
2022/02/23 02:44:28;;;;;;;5.43;2.55;;;7.30;63.10;;;;;;6183029;23;20001;-79
2022/02/23 02:46:54;;;;;;;2.78;1.80;;;7.30;62.70;;;;;;6182582;23;20001;-79
2022/02/23 02:49:20;;;;;;;2.25;1.95;;;7.30;62.00;;;;;;6156628;23;20055;-79
2022/02/23 02:51:47;;;;;;;1.92;1.73;;;7.40;61.80;;;;;;6183034;23;20005;-79
2022/02/23 02:54:13;;;;;;;2.80;2.03;;;7.40;62.00;;;;;;6158321;23;20051;-79
2022/02/23 02:56:40;;;;;;;2.28;1.80;;;7.30;62.30;;;;;;6158299;23;20084;-79
2022/02/23 02:59:06;;;;;;;1.83;1.73;;;7.30;61.90;;;;;;6158281;23;20001;-79
2022/02/23 03:01:33;;;;;;;2.22;1.90;;;7.30;61.40;;;;;;6184245;23;20071;-79
2022/02/23 03:03:59;;;;;;;2.35;2.03;;;7.30;60.70;;;;;;6184400;23;20051;-79
2022/02/23 03:06:25;;;;;;;2.53;2.20;;;7.30;61.40;;;;;;6184647;23;19997;-79
2022/02/23 03:08:52;;;;;;;1.58;1.48;;;7.30;61.00;;;;;;6157809;23;20084;-79
2022/02/23 03:11:18;;;;;;;2.47;1.45;;;7.30;60.60;;;;;;6184252;23;20024;-79
2022/02/23 03:13:44;;;;;;;1.67;1.55;;;7.30;60.60;;;;;;6184246;23;19997;-79
2022/02/23 03:16:12;;;;;;;1.40;1.30;;;7.20;60.60;;;;;;6184530;23;20008;-79
2022/02/23 03:18:38;;;;;;;1.50;1.40;;;7.20;60.70;;;;;;6183854;23;20090;-79
2022/02/23 03:21:05;;;;;;;2.25;1.35;;;7.20;60.50;;;;;;6184511;23;20007;-79
2022/02/23 03:23:31;;;;;;;3.60;1.38;;;7.20;60.60;;;;;;6157544;23;20016;-79
2022/02/23 03:25:56;;;;;;;2.67;1.40;;;7.10;60.60;;;;;;6158166;23;20023;-79
2022/02/23 03:28:22;;;;;;;1.55;1.40;;;7.10;60.90;;;;;;6184163;23;20032;-79
2022/02/23 03:30:49;;;;;;;1.38;1.27;;;7.10;60.60;;;;;;6184436;23;20333;-79
2022/02/23 03:33:15;;;;;;;1.30;0.90;;;7.00;60.70;;;;;;6183967;23;20063;-79
2022/02/23 03:35:42;;;;;;;1.20;1.10;;;6.90;60.50;;;;;;6184318;23;20009;-79
2022/02/23 03:38:09;;;;;;;1.30;1.20;;;6.90;60.30;;;;;;6157800;23;20040;-79
2022/02/23 03:40:35;;;;;;;1.20;1.15;;;7.00;60.50;;;;;;6183969;23;20005;-79
2022/02/23 03:43:02;;;;;;;1.33;1.23;;;6.90;60.30;;;;;;6184066;23;20056;-79
2022/02/23 03:45:28;;;;;;;0.95;0.95;;;6.90;60.00;;;;;;6184414;23;20008;-79
2022/02/23 03:47:54;;;;;;;1.02;0.93;;;6.90;60.00;;;;;;6184009;23;20005;-79
2022/02/23 03:50:20;;;;;;;1.15;1.05;;;6.90;60.20;;;;;;6184098;23;20024;-79
2022/02/23 03:52:46;;;;;;;1.35;1.15;;;6.90;60.30;;;;;;6157286;23;20344;-79
2022/02/23 03:55:13;;;;;;;1.20;1.10;;;6.90;60.10;;;;;;6183872;23;20106;-79
2022/02/23 03:57:39;;;;;;;1.20;1.10;;;6.90;60.00;;;;;;6184062;23;20001;-79
2022/02/23 04:00:07;;;;;;;1.65;1.30;;;6.90;59.90;;;;;;6184028;23;20052;-79
2022/02/23 04:02:33;;;;;;;1.60;0.90;;;6.90;59.80;;;;;;6184096;23;20012;-79
2022/02/23 04:04:59;;;;;;;0.98;0.98;;;6.90;59.50;;;;;;6183858;23;20441;-79
2022/02/23 04:07:25;;;;;;;1.45;0.98;;;7.00;59.10;;;;;;6157758;23;20464;-79
2022/02/23 04:09:51;;;;;;;1.00;0.90;;;7.00;59.00;;;;;;6157983;23;20005;-79
2022/02/23 04:12:17;;;;;;;1.00;0.82;;;7.00;58.90;;;;;;6183957;23;19997;-79
2022/02/23 04:14:44;;;;;;;1.02;0.82;;;7.00;58.60;;;;;;6157750;23;20005;-78
2022/02/23 04:17:25;;;;;;;0.77;0.77;;;7.00;58.50;;;;;;6158644;23;20012;-75
2022/02/23 04:19:51;;;;;;;1.10;1.00;;;7.00;58.30;;;;;;6186631;23;20433;-80
2022/02/23 04:22:17;;;;;;;1.10;1.10;;;7.00;58.20;;;;;;6184714;23;20028;-78
2022/02/23 04:24:43;;;;;;;0.90;0.82;;;7.00;57.70;;;;;;6173272;23;20057;-80
2022/02/23 04:27:09;;;;;;;1.10;1.00;;;7.00;57.80;;;;;;6154498;23;20013;-80
2022/02/23 04:29:35;;;;;;;0.70;0.70;;;6.90;57.80;;;;;;6155454;23;20033;-80
2022/02/23 04:32:01;;;;;;;1.10;1.00;;;6.90;58.10;;;;;;6156142;23;20004;-80
2022/02/23 04:34:27;;;;;;;2.22;0.95;;;6.90;58.50;;;;;;6155905;23;20009;-79
2022/02/23 04:36:53;;;;;;;1.38;0.90;;;6.90;58.70;;;;;;6155979;23;20005;-80
2022/02/23 04:39:19;;;;;;;1.13;0.80;;;6.90;58.40;;;;;;6156208;23;20330;-80
2022/02/23 04:41:44;;;;;;;0.68;0.68;;;6.90;58.50;;;;;;6129903;23;20587;-80
2022/02/23 04:44:10;;;;;;;0.80;0.75;;;6.90;58.50;;;;;;6156043;23;20333;-80
2022/02/23 04:46:36;;;;;;;1.58;0.70;;;6.90;58.10;;;;;;6155833;23;20005;-80
2022/02/23 04:49:03;;;;;;;0.75;0.75;;;6.90;58.00;;;;;;6156000;23;20005;-80
2022/02/23 04:51:30;;;;;;;0.70;0.70;;;6.90;58.30;;;;;;6129300;23;20005;-79
2022/02/23 04:54:00;;;;;;;0.70;0.70;;;6.90;58.90;;;;;;6129361;23;20061;-80
2022/02/23 04:56:26;;;;;;;0.80;0.80;;;6.90;58.20;;;;;;6155537;23;20001;-80
2022/02/23 04:58:52;;;;;;;0.80;0.80;;;6.90;58.10;;;;;;6155521;23;20080;-80
2022/02/23 05:01:18;;;;;;;1.27;1.17;;;6.90;58.10;;;;;;6155667;23;20051;-80
2022/02/23 05:03:44;;;;;;;0.80;0.80;;;6.90;57.60;;;;;;6129322;23;20089;-80
2022/02/23 05:06:10;;;;;;;2.10;0.77;;;6.90;57.80;;;;;;6129296;23;20009;-79
2022/02/23 05:08:36;;;;;;;3.55;1.00;;;6.80;58.20;;;;;;6155708;23;20430;-80
2022/02/23 05:11:02;;;;;;;0.90;0.88;;;6.80;58.20;;;;;;6129577;23;20060;-80
2022/02/23 05:13:29;;;;;;;1.20;1.10;;;6.80;58.30;;;;;;6130754;23;20609;-79
2022/02/23 05:16:01;;;;;;;1.73;0.85;;;6.80;58.80;;;;;;6130633;23;20005;-80
2022/02/23 05:18:28;;;;;;;0.52;0.50;;;6.70;58.30;;;;;;6157214;23;20017;-80
2022/02/23 05:20:54;;;;;;;1.05;0.60;;;6.70;58.40;;;;;;6130812;23;20012;-80
2022/02/23 05:23:20;;;;;;;0.80;0.57;;;6.70;58.30;;;;;;6156978;23;20009;-80
2022/02/23 05:25:46;;;;;;;0.80;0.80;;;6.70;58.80;;;;;;6156791;23;20017;-80
2022/02/23 05:28:12;;;;;;;0.88;0.73;;;6.70;58.60;;;;;;6129876;23;20450;-80
2022/02/23 05:30:38;;;;;;;0.93;0.90;;;6.70;58.20;;;;;;6129535;23;20001;-80
2022/02/23 05:33:04;;;;;;;0.70;0.70;;;6.60;58.50;;;;;;6155525;23;20011;-80
2022/02/23 05:35:30;;;;;;;0.73;0.70;;;6.60;58.70;;;;;;6128828;23;20002;-80
2022/02/23 05:37:56;;;;;;;0.80;0.80;;;6.60;59.00;;;;;;6129105;23;20013;-80
2022/02/23 05:40:22;;;;;;;0.90;0.85;;;6.60;58.80;;;;;;6154552;23;20064;-80
2022/02/23 05:42:47;;;;;;;0.98;0.98;;;6.60;59.20;;;;;;6154626;23;20508;-80
2022/02/23 05:45:13;;;;;;;0.85;0.73;;;6.50;59.30;;;;;;6154271;23;20012;-79
2022/02/23 05:47:40;;;;;;;0.90;0.90;;;6.50;59.10;;;;;;6128168;23;20010;-79
2022/02/23 05:50:06;;;;;;;0.73;0.73;;;6.50;59.10;;;;;;6153740;23;19998;-79
2022/02/23 05:52:32;;;;;;;0.95;0.95;;;6.50;59.20;;;;;;6128151;23;20009;-79
2022/02/23 05:54:58;;;;;;;1.48;0.60;;;6.50;59.50;;;;;;6128064;23;20434;-79
2022/02/23 05:57:23;;;;;;;1.50;1.00;;;6.40;59.70;;;;;;6153988;23;20009;-79
2022/02/23 05:59:50;;;;;;;2.33;1.40;;;6.40;59.70;;;;;;6128026;23;20473;-79
2022/02/23 06:02:15;;;;;;;1.13;0.80;;;6.50;59.70;;;;;;6153489;23;20563;-79
2022/02/23 06:04:41;;;;;;;0.73;0.73;;;6.40;59.40;;;;;;6154065;23;20001;-79
2022/02/23 06:07:07;;;;;;;2.33;1.20;;;6.50;59.20;;;;;;6154683;23;20442;-79
2022/02/23 06:09:33;;;;;;;1.60;1.15;;;6.40;59.40;;;;;;6154948;23;20012;-80
2022/02/23 06:12:00;;;;;;;0.80;0.80;;;6.40;59.40;;;;;;6154902;23;19998;-79
2022/02/23 06:14:27;;;;;;;1.67;1.20;;;6.40;59.60;;;;;;6128920;23;20033;-79
2022/02/23 06:16:53;;;;;;;9.68;1.00;;;6.50;59.30;;;;;;6155149;23;20449;-80
2022/02/23 06:19:21;;;;;;;1.00;0.90;;;6.40;59.50;;;;;;6155168;23;20069;-80
2022/02/23 06:21:47;;;;;;;1.75;0.98;;;6.40;59.50;;;;;;6129506;23;20342;-80
2022/02/23 06:24:13;;;;;;;1.70;0.93;;;6.50;59.70;;;;;;6152729;23;20067;-80
2022/02/23 06:26:39;;;;;;;4.28;0.93;;;6.40;60.00;;;;;;6152997;23;20489;-80
2022/02/23 06:29:05;;;;;;;1.25;1.15;;;6.40;59.70;;;;;;6153208;23;20088;-80
2022/02/23 06:31:30;;;;;;;1.83;1.00;;;6.40;60.20;;;;;;6153293;23;20052;-80
2022/02/23 06:33:56;;;;;;;1.02;1.00;;;6.40;60.40;;;;;;6126422;23;20057;-80
2022/02/23 06:36:22;;;;;;;1.88;1.30;;;6.40;60.70;;;;;;6126747;23;20012;-80
2022/02/23 06:38:48;;;;;;;1.95;0.95;;;6.40;60.50;;;;;;6152789;23;20009;-80
2022/02/23 06:41:19;;;;;;;4.97;1.40;;;6.40;60.30;;;;;;6152756;23;20002;-80
2022/02/23 06:43:47;;;;;;;1.30;1.15;;;6.40;60.80;;;;;;6152912;23;20056;-80
2022/02/23 06:46:13;;;;;;;1.10;1.00;;;6.40;60.70;;;;;;6126760;23;20009;-79
2022/02/23 06:48:40;;;;;;;1.58;1.25;;;6.40;60.90;;;;;;6154698;23;20002;-79
2022/02/23 06:51:07;;;;;;;3.33;1.85;;;6.40;60.70;;;;;;6154919;23;19998;-80
2022/02/23 06:53:33;;;;;;;3.33;1.45;;;6.40;60.90;;;;;;6154230;23;20002;-80
2022/02/23 06:55:59;;;;;;;2.17;1.30;;;6.50;61.00;;;;;;6155046;23;20457;-79
2022/02/23 06:58:25;;;;;;;2.42;1.60;;;6.50;61.20;;;;;;6154562;23;20009;-80
2022/02/23 07:00:51;;;;;;;2.55;1.27;;;6.50;60.80;;;;;;6154401;23;19994;-80
2022/02/23 07:03:17;;;;;;;3.95;1.90;;;6.60;61.10;;;;;;6154464;23;20442;-80
2022/02/23 07:05:43;;;;;;;1.88;1.65;;;6.60;61.40;;;;;;6154795;23;20378;-80
2022/02/23 07:08:09;;;;;;;1.98;1.50;;;6.70;61.20;;;;;;6154284;23;20366;-80
2022/02/23 07:10:37;;;;;;;1.55;1.45;;;6.70;61.50;;;;;;6154737;23;20028;-80
2022/02/23 07:13:06;;;;;;;1.90;1.75;;;6.70;61.70;;;;;;6154218;23;20048;-80
2022/02/23 07:15:35;;;;;;;2.10;1.70;;;6.80;61.50;;;;;;6154738;23;20390;-80
2022/02/23 07:18:01;;;;;;;3.50;1.88;;;6.80;61.60;;;;;;6154768;23;20005;-80
2022/02/23 07:20:27;;;;;;;3.78;2.13;;;6.80;62.20;;;;;;6154404;23;20060;-79
2022/02/23 07:22:53;;;;;;;2.30;1.90;;;6.80;62.60;;;;;;6128324;23;20326;-80
2022/02/23 07:25:20;;;;;;;3.85;2.20;;;6.90;62.80;;;;;;6154101;23;20393;-80
2022/02/23 07:27:46;;;;;;;2.08;1.90;;;6.90;63.00;;;;;;6152509;23;20088;-80
2022/02/23 07:30:16;;;;;;;2.03;1.83;;;6.90;63.30;;;;;;6154353;23;20052;-80
2022/02/23 07:32:42;;;;;;;2.33;2.20;;;7.00;63.80;;;;;;6154496;23;20021;-80
2022/02/23 07:35:13;;;;;;;5.35;1.88;;;7.00;64.30;;;;;;6154088;23;20005;-79
2022/02/23 07:37:41;;;;;;;3.03;1.98;;;7.10;64.80;;;;;;6152782;23;20045;-80
2022/02/23 07:40:20;;;;;;;3.30;1.85;;;7.10;64.70;;;;;;6156287;23;20005;-75
2022/02/23 07:42:47;;;;;;;2.15;1.42;;;7.20;65.50;;;;;;6154458;23;20315;-80
2022/02/23 07:45:12;;;;;;;4.25;1.88;;;7.20;64.60;;;;;;6155272;23;20048;-81
2022/02/23 07:47:38;;;;;;;5.03;2.38;;;7.20;64.50;;;;;;6155794;23;20006;-81
2022/02/23 07:50:11;;;;;;;2.45;1.58;;;7.30;64.70;;;;;;6155608;23;20071;-81
2022/02/23 07:52:37;;;;;;;;;;;7.30;64.70;;;;;;6155594;23;20085;-81
2022/02/23 07:55:04;;;;;;;1.67;1.40;;;7.40;64.90;;;;;;6155346;23;19905;-81
2022/02/23 07:57:30;;;;;;;2.10;1.88;;;7.40;64.90;;;;;;6155315;23;20006;-81
2022/02/23 07:59:56;;;;;;;3.70;2.20;;;7.50;65.00;;;;;;6155234;23;20338;-80
2022/02/23 08:02:23;;;;;;;3.53;1.85;;;7.60;65.80;;;;;;6128881;23;20010;-80
2022/02/23 08:04:52;;;;;;;1.98;1.77;;;7.60;65.10;;;;;;6130078;23;20029;-81
2022/02/23 08:07:21;;;;;;;3.60;2.40;;;7.70;66.10;;;;;;6157119;23;20001;-81
2022/02/23 08:09:47;;;;;;;2.97;1.55;;;7.80;65.60;;;;;;6157523;23;20006;-81
2022/02/23 08:12:13;;;;;;;6.10;1.55;;;7.80;65.50;;;;;;6157087;23;20430;-81
2022/02/23 08:14:42;;;;;;;2.85;1.88;;;7.80;66.30;;;;;;6157160;23;20002;-81
2022/02/23 08:19:52;;;;;;;7.63;1.75;;;7.80;67.70;;;;;;6157194;23;20021;-81
2022/02/23 08:22:18;;;;;;;5.30;1.70;;;8.00;65.80;;;;;;6155514;23;20009;-81
2022/02/23 08:24:49;;;;;;;1.50;1.38;;;8.00;66.00;;;;;;6157238;23;20018;-81
2022/02/23 08:27:17;;;;;;;1.85;1.58;;;8.00;65.90;;;;;;6157104;23;20444;-81
2022/02/23 08:29:44;;;;;;;1.60;1.50;;;8.10;66.00;;;;;;6157535;23;20080;-81
2022/02/23 08:32:12;;;;;;;4.85;2.38;;;8.10;66.30;;;;;;6157365;23;19997;-81
2022/02/23 08:34:41;;;;;;;6.00;2.22;;;8.10;66.30;;;;;;6156562;23;20086;-81
2022/02/23 08:37:08;;;;;;;3.78;2.17;;;8.20;65.50;;;;;;6154212;23;20342;-80
2022/02/23 08:39:35;;;;;;;4.68;2.05;;;8.30;65.20;;;;;;6155736;23;20017;-81
2022/02/23 08:42:02;;;;;;;1.85;1.40;;;8.40;64.60;;;;;;6155965;23;20006;-80
2022/02/23 08:44:27;;;;;;;1.63;1.42;;;8.50;61.90;;;;;;6155963;23;20012;-81
2022/02/23 08:46:55;;;;;;;2.80;1.08;;;8.60;61.80;;;;;;6155285;23;20037;-80
2022/02/23 08:49:22;;;;;;;0.90;0.90;;;8.60;61.60;;;;;;6129749;23;20002;-81
2022/02/23 08:51:49;;;;;;;1.75;1.27;;;8.70;59.70;;;;;;6155861;23;20018;-81
2022/02/23 08:54:16;;;;;;;2.03;1.20;;;8.70;59.90;;;;;;6155652;23;19997;-80
2022/02/23 08:56:43;;;;;;;2.70;1.10;;;8.90;58.50;;;;;;6155412;23;20002;-80
2022/02/23 08:59:09;;;;;;;1.42;1.30;;;9.00;57.70;;;;;;6129907;23;20406;-81
2022/02/23 09:01:35;;;;;;;1.63;1.52;;;9.10;58.80;;;;;;6155617;23;20002;-81
2022/02/23 09:04:02;;;;;;;1.98;1.50;;;9.10;58.30;;;;;;6155606;23;19998;-81
2022/02/23 09:06:29;;;;;;;2.70;1.10;;;9.10;58.90;;;;;;6155825;23;20001;-80
2022/02/23 09:08:55;;;;;;;1.55;1.20;;;9.20;58.40;;;;;;6155681;23;20001;-80
2022/02/23 09:11:20;;;;;;;1.20;1.15;;;9.30;58.20;;;;;;6155350;23;19998;-81
2022/02/23 09:13:46;;;;;;;1.45;1.20;;;9.40;57.20;;;;;;6129343;23;20453;-80
2022/02/23 09:16:12;;;;;;;2.70;1.20;;;9.50;57.60;;;;;;6129148;23;20001;-81
2022/02/23 09:18:38;;;;;;;1.40;1.30;;;9.50;58.40;;;;;;6129167;23;20009;-80
2022/02/23 09:21:04;;;;;;;3.00;1.15;;;9.60;56.50;;;;;;6155767;23;20135;-80
2022/02/23 09:23:32;;;;;;;2.67;1.60;;;9.60;57.30;;;;;;6155908;23;20005;-81
2022/02/23 09:25:58;;;;;;;2.55;1.10;;;9.80;57.90;;;;;;6155350;23;20017;-81
2022/02/23 09:28:24;;;;;;;1.60;0.80;;;9.80;57.00;;;;;;6155015;23;20010;-81
2022/02/23 09:30:50;;;;;;;2.35;1.10;;;10.00;55.20;;;;;;6155756;23;20080;-81
2022/02/23 09:33:16;;;;;;;1.10;1.05;;;10.10;54.90;;;;;;6155223;23;20008;-81
2022/02/23 09:35:45;;;;;;;5.18;1.15;;;10.10;54.70;;;;;;6155225;23;20002;-80
2022/02/23 09:38:12;;;;;;;2.63;1.50;;;10.20;55.90;;;;;;6155278;23;20080;-81
2022/02/23 09:40:41;;;;;;;2.45;1.80;;;10.30;55.80;;;;;;6155484;23;20060;-81
2022/02/23 09:43:08;;;;;;;3.60;1.48;;;10.40;56.50;;;;;;6155365;23;20001;-80
2022/02/23 09:45:36;;;;;;;3.47;1.60;;;10.40;56.00;;;;;;6129196;23;20591;-81
2022/02/23 09:48:02;;;;;;;1.90;1.25;;;10.50;55.60;;;;;;6129203;23;20009;-80
2022/02/23 09:50:27;;;;;;;1.95;1.42;;;10.50;56.30;;;;;;6129093;23;20090;-81
2022/02/23 09:52:54;;;;;;;1.33;1.30;;;10.50;55.80;;;;;;6155005;23;19998;-80
2022/02/23 09:55:21;;;;;;;2.25;1.42;;;10.60;56.40;;;;;;6155079;23;20001;-80
2022/02/23 09:57:47;;;;;;;1.73;1.40;;;10.80;54.60;;;;;;6155364;23;20001;-80
2022/02/23 10:00:14;;;;;;;3.05;1.52;;;10.90;55.90;;;;;;6154912;23;20032;-81
2022/02/23 10:02:40;;;;;;;1.20;1.10;;;10.80;56.90;;;;;;6128867;23;20012;-80
2022/02/23 10:05:06;;;;;;;1.83;1.50;;;10.80;56.00;;;;;;6155198;23;20006;-80
2022/02/23 10:07:38;;;;;;;3.40;1.30;;;10.80;56.50;;;;;;6128974;23;20005;-80
2022/02/23 10:10:08;;;;;;;2.60;1.95;;;10.80;57.90;;;;;;6154729;23;20006;-81
2022/02/23 10:12:36;;;;;;;1.67;1.42;;;10.80;57.60;;;;;;6128673;23;20333;-80
2022/02/23 10:15:20;;;;;;;1.58;1.20;;;10.80;56.10;;;;;;6154867;23;20187;-80
2022/02/23 10:17:48;;;;;;;3.42;1.60;;;10.70;56.90;;;;;;6154550;23;20001;-80
2022/02/23 10:20:32;;;;;;;3.13;1.40;;;10.70;57.20;;;;;;6128587;23;20006;-81
2022/02/23 10:23:18;;;;;;;2.92;1.27;;;10.70;55.70;;;;;;6128287;23;20084;-80
2022/02/23 10:25:51;;;;;;;1.33;1.23;;;10.80;54.30;;;;;;6154646;23;20096;-81
2022/02/23 10:28:22;;;;;;;1.27;1.13;;;10.90;56.50;;;;;;6153844;23;20068;-80
2022/02/23 10:30:57;;;;;;;1.97;1.07;;;10.90;56.90;;;;;;6155010;23;19997;-80
2022/02/23 10:33:30;;;;;;;1.55;1.38;;;11.00;55.90;;;;;;6129216;23;20476;-80
2022/02/23 10:36:05;;;;;;;1.73;1.58;;;11.00;55.90;;;;;;6155812;23;20397;-80
2022/02/23 10:38:37;;;;;;;1.67;1.55;;;11.00;55.50;;;;;;6155447;23;20001;-80
2022/02/23 10:41:06;;;;;;;4.53;1.92;;;11.00;56.40;;;;;;6155643;23;20031;-80
2022/02/23 10:43:36;;;;;;;1.50;1.40;;;11.20;54.10;;;;;;6129233;23;20354;-79
2022/02/23 10:46:12;;;;;;;1.42;1.33;;;11.20;53.20;;;;;;6155973;23;20002;-80
2022/02/23 10:48:43;;;;;;;1.38;1.30;;;11.30;53.40;;;;;;6155641;23;20006;-80
2022/02/23 10:51:18;;;;;;;1.90;1.80;;;11.50;56.00;;;;;;6155410;23;20340;-80
2022/02/23 10:53:45;;;;;;;2.97;1.40;;;11.60;54.70;;;;;;6155401;23;20561;-80
2022/02/23 10:56:33;;;;;;;1.73;1.63;;;11.60;56.10;;;;;;6155297;23;19990;-80
2022/02/23 11:01:57;;;;;;;7.07;1.80;;;11.70;57.00;;;;;;6154803;23;20044;-80
2022/02/23 11:04:23;;;;;;;2.10;1.90;;;11.90;57.10;;;;;;6155585;23;20001;-80
2022/02/23 11:06:51;;;;;;;3.65;2.08;;;12.00;59.00;;;;;;6156076;23;20006;-80
2022/02/23 11:09:17;;;;;;;4.35;2.47;;;12.10;59.20;;;;;;6156646;23;20001;-73
2022/02/23 11:11:44;;;;;;;2.63;2.40;;;12.30;59.30;;;;;;6155694;23;20002;-74
2022/02/23 11:14:11;;;;;;;2.80;2.42;;;12.40;60.20;;;;;;6155590;23;20049;-74
2022/02/23 11:16:38;;;;;;;5.70;2.05;;;12.50;57.90;;;;;;6155123;23;20322;-73
2022/02/23 11:19:05;;;;;;;3.88;2.25;;;12.60;58.20;;;;;;6128677;23;20029;-74
2022/02/23 11:21:34;;;;;;;3.75;2.30;;;12.60;59.00;;;;;;6154693;23;20002;-73
2022/02/23 11:24:03;;;;;;;3.88;2.28;;;12.70;58.50;;;;;;6154548;23;20009;-73
2022/02/23 11:26:32;;;;;;;5.70;2.25;;;12.80;59.40;;;;;;6154323;23;20081;-73
2022/02/23 11:29:33;;;;;;;2.67;2.47;;;12.90;58.90;;;;;;6154355;23;20037;-73
2022/02/23 11:32:03;;;;;;;2.88;2.35;;;13.00;58.50;;;;;;6154471;23;20021;-73
2022/02/23 11:34:29;;;;;;;5.32;2.58;;;12.90;57.60;;;;;;6154699;23;20002;-74
2022/02/23 11:36:55;;;;;;;2.55;2.35;;;13.00;58.00;;;;;;6154917;23;20025;-74
2022/02/23 11:39:29;;;;;;;5.63;2.30;;;13.00;57.50;;;;;;6154926;23;20031;-73
2022/02/23 11:42:00;;;;;;;3.03;2.50;;;12.90;55.90;;;;;;6155160;23;19997;-74
2022/02/23 11:44:32;;;;;;;3.78;2.95;;;13.00;56.70;;;;;;6154934;23;20001;-74
2022/02/23 11:47:13;;;;;;;5.47;2.80;;;13.10;57.30;;;;;;6154546;23;20534;-73
2022/02/23 11:49:57;;;;;;;4.57;2.63;;;13.10;55.40;;;;;;6154961;23;19998;-73
2022/02/23 11:52:26;;;;;;;5.53;2.33;;;13.10;56.20;;;;;;6128563;23;20005;-74
2022/02/23 11:55:09;;;;;;;5.18;2.55;;;13.10;56.50;;;;;;6153516;23;20028;-73
2022/02/23 11:57:39;;;;;;;3.00;2.72;;;13.20;57.60;;;;;;6128847;23;20140;-74
2022/02/23 12:00:07;;;;;;;5.82;2.92;;;13.30;57.10;;;;;;6154860;23;20307;-73
2022/02/23 12:02:33;;;;;;;4.85;3.33;;;13.20;55.80;;;;;;6128699;23;20006;-73
2022/02/23 12:05:00;;;;;;;3.90;2.30;;;13.30;55.50;;;;;;6154910;23;20006;-74
2022/02/23 12:07:43;;;;;;;2.83;2.63;;;13.30;55.10;;;;;;6154872;23;20123;-74
2022/02/23 12:10:09;;;;;;;4.35;2.67;;;13.30;55.30;;;;;;6154968;23;19998;-73
2022/02/23 12:12:38;;;;;;;6.50;2.78;;;13.40;54.80;;;;;;6154816;23;20001;-74
2022/02/23 12:15:35;;;;;;;3.92;2.22;;;13.50;56.00;;;;;;6154803;23;19998;-73
2022/02/23 12:18:11;;;;;;;2.60;2.40;;;13.60;55.10;;;;;;6154657;23;20001;-73
2022/02/23 12:20:41;;;;;;;3.28;2.72;;;13.70;56.40;;;;;;6154605;23;20005;-73
2022/02/23 12:23:18;;;;;;;8.88;3.30;;;13.70;55.70;;;;;;6154010;23;20009;-74
2022/02/23 12:25:57;;;;;;;6.00;3.10;;;13.90;56.30;;;;;;6152385;23;20079;-80
2022/02/23 12:28:33;;;;;;;4.32;3.03;;;13.90;55.60;;;;;;6153216;23;20029;-80
2022/02/23 12:31:00;;;;;;;7.43;3.40;;;13.90;56.50;;;;;;6153143;23;20131;-80
2022/02/23 12:33:26;;;;;;;7.40;3.50;;;13.90;55.80;;;;;;6153835;23;19998;-80
2022/02/23 12:35:54;;;;;;;6.30;3.58;;;14.00;55.50;;;;;;6153089;23;20496;-80
2022/02/23 12:38:28;;;;;;;5.53;3.20;;;14.00;55.40;;;;;;6151229;23;20012;-80
2022/02/23 12:40:55;;;;;;;3.45;3.15;;;14.00;56.30;;;;;;6151889;23;20397;-80
2022/02/23 12:43:21;;;;;;;4.63;3.10;;;14.10;56.20;;;;;;6153352;23;20002;-80
2022/02/23 12:45:58;;;;;;;5.18;3.55;;;14.10;56.70;;;;;;6153534;23;20068;-80
2022/02/23 12:48:33;;;;;;;3.90;3.05;;;14.10;55.50;;;;;;6153488;23;20072;-80
2022/02/23 12:51:01;;;;;;;4.43;3.05;;;14.10;55.10;;;;;;6154135;23;20080;-80
2022/02/23 12:53:34;;;;;;;3.70;3.33;;;14.10;54.90;;;;;;6155180;23;20081;-80
2022/02/23 12:56:23;;;;;;;6.55;3.88;;;14.20;54.30;;;;;;6155170;23;20009;-80
2022/02/23 12:59:00;;;;;;;4.20;3.65;;;14.20;54.50;;;;;;6155266;23;20085;-80
2022/02/23 13:01:27;;;;;;;7.13;3.40;;;14.20;55.70;;;;;;6128781;23;20522;-80
2022/02/23 13:03:56;;;;;;;5.32;3.88;;;14.20;56.40;;;;;;6129226;23;20013;-80